sensor_id;sensor_type;location;lat;lon;timestamp;pressure;altitude;pressure_sealevel;temperature;humidity
9474;BME280;8865;47.636;7.692;2023-03-03T00:01:10;98454.03;;;4.63;100.00
9474;BME280;8865;47.636;7.692;2023-03-03T00:03:36;98450.50;;;4.64;100.00
9474;BME280;8865;47.636;7.692;2023-03-03T00:06:03;98459.97;;;4.65;100.00
9474;BME280;8865;47.636;7.692;2023-03-03T00:08:30;98448.75;;;4.65;100.00
9474;BME280;8865;47.636;7.692;2023-03-03T00:10:57;98454.78;;;4.65;100.00
9474;BME280;8865;47.636;7.692;2023-03-03T00:13:26;98459.13;;;4.65;100.00
9474;BME280;8865;47.636;7.692;2023-03-03T00:16:42;98450.59;;;4.63;100.00
9474;BME280;8865;47.636;7.692;2023-03-03T00:18:46;98451.59;;;4.60;100.00
9474;BME280;8865;47.636;7.692;2023-03-03T00:27:26;98460.69;;;4.53;100.00
9474;BME280;8865;47.636;7.692;2023-03-03T00:29:58;98456.41;;;4.52;100.00
9474;BME280;8865;47.636;7.692;2023-03-03T00:32:37;98450.31;;;4.53;100.00
9474;BME280;8865;47.636;7.692;2023-03-03T00:35:28;98452.91;;;4.53;100.00
9474;BME280;8865;47.636;7.692;2023-03-03T00:38:09;98459.94;;;4.51;100.00
9474;BME280;8865;47.636;7.692;2023-03-03T00:40:37;98461.78;;;4.49;100.00
9474;BME280;8865;47.636;7.692;2023-03-03T00:43:24;98462.53;;;4.51;100.00
9474;BME280;8865;47.636;7.692;2023-03-03T00:45:57;98459.09;;;4.51;100.00
9474;BME280;8865;47.636;7.692;2023-03-03T00:48:29;98463.38;;;4.52;100.00
9474;BME280;8865;47.636;7.692;2023-03-03T00:51:00;98462.34;;;4.54;100.00
9474;BME280;8865;47.636;7.692;2023-03-03T00:53:28;98458.91;;;4.54;100.00
9474;BME280;8865;47.636;7.692;2023-03-03T00:55:55;98451.22;;;4.52;100.00
9474;BME280;8865;47.636;7.692;2023-03-03T00:58:23;98449.47;;;4.53;100.00
9474;BME280;8865;47.636;7.692;2023-03-03T01:00:51;98455.50;;;4.53;100.00
9474;BME280;8865;47.636;7.692;2023-03-03T01:03:21;98453.81;;;4.52;100.00
9474;BME280;8865;47.636;7.692;2023-03-03T01:05:48;98451.97;;;4.54;100.00
9474;BME280;8865;47.636;7.692;2023-03-03T01:08:14;98448.63;;;4.52;100.00
9474;BME280;8865;47.636;7.692;2023-03-03T01:10:51;98456.97;;;4.57;100.00
9474;BME280;8865;47.636;7.692;2023-03-03T01:13:20;98460.50;;;4.56;100.00
9474;BME280;8865;47.636;7.692;2023-03-03T01:15:46;98460.50;;;4.56;100.00
9474;BME280;8865;47.636;7.692;2023-03-03T01:18:13;98462.16;;;4.57;100.00
9474;BME280;8865;47.636;7.692;2023-03-03T01:20:40;98461.34;;;4.57;100.00
9474;BME280;8865;47.636;7.692;2023-03-03T01:23:06;98450.97;;;4.57;100.00
9474;BME280;8865;47.636;7.692;2023-03-03T01:25:32;98451.16;;;4.54;100.00
9474;BME280;8865;47.636;7.692;2023-03-03T01:27:58;98457.25;;;4.53;100.00
9474;BME280;8865;47.636;7.692;2023-03-03T01:30:24;98453.00;;;4.52;100.00
9474;BME280;8865;47.636;7.692;2023-03-03T01:32:51;98454.81;;;4.50;100.00
9474;BME280;8865;47.636;7.692;2023-03-03T01:35:17;98455.00;;;4.46;100.00
9474;BME280;8865;47.636;7.692;2023-03-03T01:37:43;98451.59;;;4.46;100.00
9474;BME280;8865;47.636;7.692;2023-03-03T01:40:17;98449.81;;;4.46;100.00
9474;BME280;8865;47.636;7.692;2023-03-03T01:42:44;98456.78;;;4.46;100.00
9474;BME280;8865;47.636;7.692;2023-03-03T01:45:14;98455.94;;;4.45;100.00
9474;BME280;8865;47.636;7.692;2023-03-03T01:50:24;98461.03;;;4.47;100.00
9474;BME280;8865;47.636;7.692;2023-03-03T01:52:53;98466.25;;;4.47;100.00
9474;BME280;8865;47.636;7.692;2023-03-03T01:55:24;98459.38;;;4.46;100.00
9474;BME280;8865;47.636;7.692;2023-03-03T01:58:16;98461.31;;;4.42;100.00
9474;BME280;8865;47.636;7.692;2023-03-03T02:00:47;98456.94;;;4.43;100.00
9474;BME280;8865;47.636;7.692;2023-03-03T02:03:15;98453.53;;;4.42;100.00
9474;BME280;8865;47.636;7.692;2023-03-03T02:05:42;98454.34;;;4.43;100.00
9474;BME280;8865;47.636;7.692;2023-03-03T02:08:09;98455.19;;;4.43;100.00
9474;BME280;8865;47.636;7.692;2023-03-03T02:10:39;98456.88;;;4.44;100.00
9474;BME280;8865;47.636;7.692;2023-03-03T02:13:05;98450.75;;;4.45;100.00
9474;BME280;8865;47.636;7.692;2023-03-03T02:15:33;98451.59;;;4.46;100.00
9474;BME280;8865;47.636;7.692;2023-03-03T02:18:10;98451.50;;;4.47;100.00
9474;BME280;8865;47.636;7.692;2023-03-03T02:24:06;98456.59;;;4.49;100.00
9474;BME280;8865;47.636;7.692;2023-03-03T02:26:20;98449.00;;;4.46;100.00
9474;BME280;8865;47.636;7.692;2023-03-03T02:28:48;98457.69;;;4.45;100.00
9474;BME280;8865;47.636;7.692;2023-03-03T02:31:16;98458.53;;;4.45;100.00
9474;BME280;8865;47.636;7.692;2023-03-03T02:33:45;98452.50;;;4.45;100.00
9474;BME280;8865;47.636;7.692;2023-03-03T02:36:17;98457.50;;;4.48;100.00
9474;BME280;8865;47.636;7.692;2023-03-03T02:38:55;98451.59;;;4.46;100.00
9474;BME280;8865;47.636;7.692;2023-03-03T02:44:11;98452.69;;;4.42;100.00
9474;BME280;8865;47.636;7.692;2023-03-03T02:46:40;98451.94;;;4.40;100.00
9474;BME280;8865;47.636;7.692;2023-03-03T02:49:08;98453.63;;;4.41;100.00
9474;BME280;8865;47.636;7.692;2023-03-03T02:51:35;98452.69;;;4.42;100.00
9474;BME280;8865;47.636;7.692;2023-03-03T02:54:01;98453.53;;;4.42;100.00
9474;BME280;8865;47.636;7.692;2023-03-03T02:56:28;98445.84;;;4.41;100.00
9474;BME280;8865;47.636;7.692;2023-03-03T02:58:54;98440.84;;;4.38;100.00
9474;BME280;8865;47.636;7.692;2023-03-03T03:01:21;98441.56;;;4.40;100.00
9474;BME280;8865;47.636;7.692;2023-03-03T03:03:47;98446.09;;;4.36;100.00
9474;BME280;8865;47.636;7.692;2023-03-03T03:06:13;98454.06;;;4.33;100.00
9474;BME280;8865;47.636;7.692;2023-03-03T03:08:39;98448.78;;;4.35;100.00
9474;BME280;8865;47.636;7.692;2023-03-03T03:11:05;98447.13;;;4.34;100.00
9474;BME280;8865;47.636;7.692;2023-03-03T03:13:33;98448.78;;;4.35;100.00
9474;BME280;8865;47.636;7.692;2023-03-03T03:15:59;98447.03;;;4.35;100.00
9474;BME280;8865;47.636;7.692;2023-03-03T03:18:26;98446.09;;;4.36;100.00
9474;BME280;8865;47.636;7.692;2023-03-03T03:20:52;98444.34;;;4.37;100.00
9474;BME280;8865;47.636;7.692;2023-03-03T03:23:18;98446.09;;;4.36;100.00
9474;BME280;8865;47.636;7.692;2023-03-03T03:25:47;98450.34;;;4.37;100.00
9474;BME280;8865;47.636;7.692;2023-03-03T03:28:14;98450.34;;;4.37;100.00
9474;BME280;8865;47.636;7.692;2023-03-03T03:30:42;98448.03;;;4.33;100.00
9474;BME280;8865;47.636;7.692;2023-03-03T03:33:09;98459.06;;;4.36;100.00
9474;BME280;8865;47.636;7.692;2023-03-03T03:35:35;98450.34;;;4.37;100.00
9474;BME280;8865;47.636;7.692;2023-03-03T03:38:02;98458.03;;;4.39;100.00
9474;BME280;8865;47.636;7.692;2023-03-03T03:40:28;98458.03;;;4.39;100.00
9474;BME280;8865;47.636;7.692;2023-03-03T03:42:55;98449.53;;;4.37;100.00
9474;BME280;8865;47.636;7.692;2023-03-03T03:45:21;98455.53;;;4.37;100.00
9474;BME280;8865;47.636;7.692;2023-03-03T03:47:47;98456.47;;;4.36;100.00
9474;BME280;8865;47.636;7.692;2023-03-03T03:50:13;98452.94;;;4.37;100.00
9474;BME280;8865;47.636;7.692;2023-03-03T03:52:39;98456.47;;;4.36;100.00
9474;BME280;8865;47.636;7.692;2023-03-03T03:55:05;98453.03;;;4.36;100.00
9474;BME280;8865;47.636;7.692;2023-03-03T03:57:32;98451.13;;;4.39;100.00
9474;BME280;8865;47.636;7.692;2023-03-03T03:59:58;98445.06;;;4.39;100.00
9474;BME280;8865;47.636;7.692;2023-03-03T04:02:24;98452.13;;;4.37;100.00
9474;BME280;8865;47.636;7.692;2023-03-03T04:04:50;98457.66;;;4.31;100.00
9474;BME280;8865;47.636;7.692;2023-03-03T04:07:16;98459.34;;;4.32;100.00
9474;BME280;8865;47.636;7.692;2023-03-03T04:09:42;98456.75;;;4.32;100.00
9474;BME280;8865;47.636;7.692;2023-03-03T04:12:08;98458.41;;;4.33;100.00
9474;BME280;8865;47.636;7.692;2023-03-03T04:14:34;98461.94;;;4.32;100.00
9474;BME280;8865;47.636;7.692;2023-03-03T04:17:00;98461.00;;;4.33;100.00
9474;BME280;8865;47.636;7.692;2023-03-03T04:19:26;98458.31;;;4.34;100.00
9474;BME280;8865;47.636;7.692;2023-03-03T04:21:52;98458.41;;;4.33;100.00
9474;BME280;8865;47.636;7.692;2023-03-03T04:24:18;98460.91;;;4.34;100.00
9474;BME280;8865;47.636;7.692;2023-03-03T04:26:44;98462.66;;;4.34;100.00
9474;BME280;8865;47.636;7.692;2023-03-03T04:29:10;98463.59;;;4.33;100.00
9474;BME280;8865;47.636;7.692;2023-03-03T04:31:36;98461.00;;;4.33;100.00
9474;BME280;8865;47.636;7.692;2023-03-03T04:34:03;98455.97;;;4.29;100.00
9474;BME280;8865;47.636;7.692;2023-03-03T04:36:29;98462.94;;;4.29;100.00
9474;BME280;8865;47.636;7.692;2023-03-03T04:38:55;98462.94;;;4.29;100.00
9474;BME280;8865;47.636;7.692;2023-03-03T04:41:22;98464.69;;;4.28;100.00
9474;BME280;8865;47.636;7.692;2023-03-03T04:43:48;98456.16;;;4.26;100.00
9474;BME280;8865;47.636;7.692;2023-03-03T04:46:14;98458.84;;;4.25;100.00
9474;BME280;8865;47.636;7.692;2023-03-03T04:48:40;98462.59;;;4.19;100.00
9474;BME280;8865;47.636;7.692;2023-03-03T04:51:06;98459.78;;;4.24;100.00
9474;BME280;8865;47.636;7.692;2023-03-03T04:53:32;98464.69;;;4.28;100.00
9474;BME280;8865;47.636;7.692;2023-03-03T04:55:59;98465.63;;;4.27;100.00
9474;BME280;8865;47.636;7.692;2023-03-03T04:58:26;98471.78;;;4.25;100.00
9474;BME280;8865;47.636;7.692;2023-03-03T05:00:52;98470.97;;;4.24;100.00
9474;BME280;8865;47.636;7.692;2023-03-03T05:03:19;98466.63;;;4.25;100.00
9474;BME280;8865;47.636;7.692;2023-03-03T05:05:46;98471.06;;;4.23;100.00
9474;BME280;8865;47.636;7.692;2023-03-03T05:08:13;98475.47;;;4.21;100.00
9474;BME280;8865;47.636;7.692;2023-03-03T05:10:39;98469.47;;;4.20;100.00
9474;BME280;8865;47.636;7.692;2023-03-03T05:13:06;98466.56;;;4.10;100.00
9474;BME280;8865;47.636;7.692;2023-03-03T05:15:32;98472.19;;;4.03;100.00
9474;BME280;8865;47.636;7.692;2023-03-03T05:17:59;98477.09;;;4.07;100.00
9474;BME280;8865;47.636;7.692;2023-03-03T05:20:26;98476.00;;;4.11;100.00
9474;BME280;8865;47.636;7.692;2023-03-03T05:22:52;98473.31;;;4.13;100.00
9474;BME280;8865;47.636;7.692;2023-03-03T05:25:20;98469.81;;;4.14;100.00
9474;BME280;8865;47.636;7.692;2023-03-03T05:27:46;98479.19;;;4.17;100.00
9474;BME280;8865;47.636;7.692;2023-03-03T05:30:12;98475.00;;;4.14;100.00
9474;BME280;8865;47.636;7.692;2023-03-03T05:32:38;98475.66;;;4.18;100.00
9474;BME280;8865;47.636;7.692;2023-03-03T05:35:05;98477.41;;;4.17;100.00
9474;BME280;8865;47.636;7.692;2023-03-03T05:37:31;98487.78;;;4.17;100.00
9474;BME280;8865;47.636;7.692;2023-03-03T05:39:57;98482.69;;;4.16;100.00
9474;BME280;8865;47.636;7.692;2023-03-03T05:42:23;98492.16;;;4.17;100.00
9474;BME280;8865;47.636;7.692;2023-03-03T05:44:49;98492.22;;;4.15;100.00
9474;BME280;8865;47.636;7.692;2023-03-03T05:47:15;98494.91;;;4.14;100.00
9474;BME280;8865;47.636;7.692;2023-03-03T05:49:41;98494.06;;;4.13;100.00
9474;BME280;8865;47.636;7.692;2023-03-03T05:52:07;98488.69;;;4.16;100.00
9474;BME280;8865;47.636;7.692;2023-03-03T05:54:34;98488.03;;;4.13;100.00
9474;BME280;8865;47.636;7.692;2023-03-03T05:57:00;98498.41;;;4.13;100.00
9474;BME280;8865;47.636;7.692;2023-03-03T05:59:26;98506.19;;;4.13;100.00
9474;BME280;8865;47.636;7.692;2023-03-03T06:01:52;98500.91;;;4.14;100.00
9474;BME280;8865;47.636;7.692;2023-03-03T06:04:18;98496.47;;;4.16;100.00
9474;BME280;8865;47.636;7.692;2023-03-03T06:06:44;98501.75;;;4.15;100.00
9474;BME280;8865;47.636;7.692;2023-03-03T06:09:11;98506.03;;;4.16;100.00
9474;BME280;8865;47.636;7.692;2023-03-03T06:11:37;98502.09;;;4.08;100.00
9474;BME280;8865;47.636;7.692;2023-03-03T06:14:02;98505.44;;;4.10;100.00
9474;BME280;8865;47.636;7.692;2023-03-03T06:16:28;98500.75;;;4.17;100.00
9474;BME280;8865;47.636;7.692;2023-03-03T06:18:55;98503.16;;;4.20;100.00
9474;BME280;8865;47.636;7.692;2023-03-03T06:21:21;98509.88;;;4.24;100.00
9474;BME280;8865;47.636;7.692;2023-03-03T06:23:46;98511.72;;;4.22;100.00
9474;BME280;8865;47.636;7.692;2023-03-03T06:26:12;98522.00;;;4.24;100.00
9474;BME280;8865;47.636;7.692;2023-03-03T06:28:38;98512.72;;;4.20;100.00
9474;BME280;8865;47.636;7.692;2023-03-03T06:31:04;98517.72;;;4.23;100.00
9474;BME280;8865;47.636;7.692;2023-03-03T06:33:30;98515.69;;;4.28;100.00
9474;BME280;8865;47.636;7.692;2023-03-03T06:35:56;98517.38;;;4.29;100.00
9474;BME280;8865;47.636;7.692;2023-03-03T06:38:23;98522.47;;;4.31;100.00
9474;BME280;8865;47.636;7.692;2023-03-03T06:40:49;98532.69;;;4.34;100.00
9474;BME280;8865;47.636;7.692;2023-03-03T06:43:15;98527.50;;;4.34;100.00
9474;BME280;8865;47.636;7.692;2023-03-03T06:45:41;98532.41;;;4.38;100.00
9474;BME280;8865;47.636;7.692;2023-03-03T06:48:08;98538.25;;;4.42;100.00
9474;BME280;8865;47.636;7.692;2023-03-03T06:50:34;98543.34;;;4.43;100.00
9474;BME280;8865;47.636;7.692;2023-03-03T06:53:09;98543.19;;;4.46;100.00
9474;BME280;8865;47.636;7.692;2023-03-03T06:55:35;98542.13;;;4.35;100.00
9474;BME280;8865;47.636;7.692;2023-03-03T06:58:08;98546.22;;;4.39;100.00
9474;BME280;8865;47.636;7.692;2023-03-03T07:00:36;98541.72;;;4.42;100.00
9474;BME280;8865;47.636;7.692;2023-03-03T07:03:11;98540.38;;;4.35;100.00
9474;BME280;8865;47.636;7.692;2023-03-03T07:05:37;98553.59;;;4.31;100.00
9474;BME280;8865;47.636;7.692;2023-03-03T07:08:09;98558.88;;;4.29;100.00
9474;BME280;8865;47.636;7.692;2023-03-03T07:10:38;98561.78;;;4.39;100.00
9474;BME280;8865;47.636;7.692;2023-03-03T07:13:16;98570.63;;;4.51;100.00
9474;BME280;8865;47.636;7.692;2023-03-03T07:15:43;98563.16;;;4.60;100.00
9474;BME280;8865;47.636;7.692;2023-03-03T07:20:47;98560.91;;;4.70;100.00
9474;BME280;8865;47.636;7.692;2023-03-03T07:23:22;98563.22;;;4.75;100.00
9474;BME280;8865;47.636;7.692;2023-03-03T07:25:48;98571.91;;;4.74;100.00
9474;BME280;8865;47.636;7.692;2023-03-03T07:28:22;98567.13;;;4.82;100.00
9474;BME280;8865;47.636;7.692;2023-03-03T07:30:49;98564.34;;;4.85;100.00
9474;BME280;8865;47.636;7.692;2023-03-03T07:35:45;98568.66;;;5.00;100.00
9474;BME280;8865;47.636;7.692;2023-03-03T07:41:04;98569.50;;;5.01;100.00
9474;BME280;8865;47.636;7.692;2023-03-03T07:43:36;98578.56;;;4.94;100.00
9474;BME280;8865;47.636;7.692;2023-03-03T07:46:19;98572.91;;;5.01;100.00
9474;BME280;8865;47.636;7.692;2023-03-03T07:48:47;98576.06;;;4.92;100.00
9474;BME280;8865;47.636;7.692;2023-03-03T07:51:35;98576.69;;;4.96;100.00
9474;BME280;8865;47.636;7.692;2023-03-03T07:54:16;98581.50;;;5.18;100.00
9474;BME280;8865;47.636;7.692;2023-03-03T07:57:23;98589.97;;;5.36;100.00
9474;BME280;8865;47.636;7.692;2023-03-03T07:59:47;98583.38;;;5.30;100.00
9474;BME280;8865;47.636;7.692;2023-03-03T08:04:48;98583.66;;;5.54;100.00
9474;BME280;8865;47.636;7.692;2023-03-03T08:07:19;98590.97;;;5.48;100.00
9474;BME280;8865;47.636;7.692;2023-03-03T08:09:56;98587.09;;;5.55;100.00
9474;BME280;8865;47.636;7.692;2023-03-03T08:12:27;98586.53;;;5.64;100.00
9474;BME280;8865;47.636;7.692;2023-03-03T08:14:55;98589.59;;;6.00;100.00
9474;BME280;8865;47.636;7.692;2023-03-03T08:17:34;98585.13;;;6.16;100.00
9474;BME280;8865;47.636;7.692;2023-03-03T08:20:26;98582.66;;;6.28;100.00
9474;BME280;8865;47.636;7.692;2023-03-03T08:22:54;98583.34;;;6.17;100.00
9474;BME280;8865;47.636;7.692;2023-03-03T08:25:20;98580.03;;;6.42;100.00
9474;BME280;8865;47.636;7.692;2023-03-03T08:27:46;98581.41;;;6.88;100.00
9474;BME280;8865;47.636;7.692;2023-03-03T08:30:12;98579.06;;;7.10;100.00
9474;BME280;8865;47.636;7.692;2023-03-03T08:32:38;98575.44;;;7.51;100.00
9474;BME280;8865;47.636;7.692;2023-03-03T08:35:04;98579.91;;;7.62;100.00
9474;BME280;8865;47.636;7.692;2023-03-03T08:37:31;98575.31;;;7.66;100.00
9474;BME280;8865;47.636;7.692;2023-03-03T08:39:57;98578.97;;;7.76;100.00
9474;BME280;8865;47.636;7.692;2023-03-03T08:42:22;98582.53;;;8.12;100.00
9474;BME280;8865;47.636;7.692;2023-03-03T08:44:49;98578.47;;;8.08;100.00
9474;BME280;8865;47.636;7.692;2023-03-03T08:47:15;98565.22;;;8.35;100.00
9474;BME280;8865;47.636;7.692;2023-03-03T08:49:41;98571.44;;;8.58;100.00
9474;BME280;8865;47.636;7.692;2023-03-03T08:52:07;98565.31;;;8.71;100.00
9474;BME280;8865;47.636;7.692;2023-03-03T08:54:33;98568.72;;;8.96;100.00
9474;BME280;8865;47.636;7.692;2023-03-03T08:56:59;98577.38;;;8.96;100.00
9474;BME280;8865;47.636;7.692;2023-03-03T08:59:26;98582.63;;;8.96;100.00
9474;BME280;8865;47.636;7.692;2023-03-03T09:01:52;98571.59;;;9.15;100.00
9474;BME280;8865;47.636;7.692;2023-03-03T09:04:18;98570.22;;;9.34;99.18
9474;BME280;8865;47.636;7.692;2023-03-03T09:06:43;98580.47;;;9.48;97.39
9474;BME280;8865;47.636;7.692;2023-03-03T09:09:09;98583.09;;;9.48;94.07
9474;BME280;8865;47.636;7.692;2023-03-03T09:11:35;98576.91;;;9.60;93.96
9474;BME280;8865;47.636;7.692;2023-03-03T09:14:09;98577.16;;;9.80;93.16
9474;BME280;8865;47.636;7.692;2023-03-03T09:16:38;98578.81;;;9.81;91.37
9474;BME280;8865;47.636;7.692;2023-03-03T09:19:37;98578.06;;;10.13;87.20
9474;BME280;8865;47.636;7.692;2023-03-03T09:22:23;98577.47;;;11.18;83.60
9474;BME280;8865;47.636;7.692;2023-03-03T09:24:54;98570.50;;;12.21;76.10
9474;BME280;8865;47.636;7.692;2023-03-03T09:27:30;98568.59;;;13.11;68.97
9474;BME280;8865;47.636;7.692;2023-03-03T09:30:02;98566.66;;;13.13;65.44
9474;BME280;8865;47.636;7.692;2023-03-03T09:32:37;98572.88;;;13.21;63.71
9474;BME280;8865;47.636;7.692;2023-03-03T09:35:40;98570.69;;;13.07;60.07
9474;BME280;8865;47.636;7.692;2023-03-03T09:38:27;98570.38;;;13.39;59.88
9474;BME280;8865;47.636;7.692;2023-03-03T09:46:37;98576.81;;;12.68;61.62
9474;BME280;8865;47.636;7.692;2023-03-03T10:00:39;98581.34;;;15.10;53.28
9474;BME280;8865;47.636;7.692;2023-03-03T10:05:57;98574.91;;;13.95;53.61
9474;BME280;8865;47.636;7.692;2023-03-03T10:11:22;98585.88;;;13.33;56.10
9474;BME280;8865;47.636;7.692;2023-03-03T10:22:56;98597.25;;;11.22;64.25
9474;BME280;8865;47.636;7.692;2023-03-03T10:25:30;98594.53;;;11.54;65.58
9474;BME280;8865;47.636;7.692;2023-03-03T10:28:12;98588.03;;;11.79;65.51
9474;BME280;8865;47.636;7.692;2023-03-03T10:41:37;98589.09;;;12.68;61.91
9474;BME280;8865;47.636;7.692;2023-03-03T10:52:52;98586.28;;;14.41;55.48
9474;BME280;8865;47.636;7.692;2023-03-03T11:06:00;98565.28;;;21.55;38.12
9474;BME280;8865;47.636;7.692;2023-03-03T11:08:47;98562.88;;;22.71;35.10
9474;BME280;8865;47.636;7.692;2023-03-03T11:13:44;98551.44;;;24.48;30.78
9474;BME280;8865;47.636;7.692;2023-03-03T11:24:37;98554.59;;;24.38;28.53
9474;BME280;8865;47.636;7.692;2023-03-03T11:29:54;98549.09;;;25.65;26.81
9474;BME280;8865;47.636;7.692;2023-03-03T11:35:26;98536.56;;;23.61;28.88
9474;BME280;8865;47.636;7.692;2023-03-03T11:40:49;98548.72;;;24.61;27.68
9474;BME280;8865;47.636;7.692;2023-03-03T11:45:54;98536.78;;;20.78;33.04
9474;BME280;8865;47.636;7.692;2023-03-03T11:48:37;98529.63;;;21.00;32.93
9474;BME280;8865;47.636;7.692;2023-03-03T11:51:13;98535.09;;;21.90;32.24
9474;BME280;8865;47.636;7.692;2023-03-03T11:53:56;98520.34;;;22.56;32.00
9474;BME280;8865;47.636;7.692;2023-03-03T11:56:32;98520.69;;;24.89;28.66
9474;BME280;8865;47.636;7.692;2023-03-03T12:04:45;98514.84;;;26.77;25.32
9474;BME280;8865;47.636;7.692;2023-03-03T12:12:40;98515.69;;;25.98;25.36
9474;BME280;8865;47.636;7.692;2023-03-03T12:25:42;98492.19;;;26.85;25.84
9474;BME280;8865;47.636;7.692;2023-03-03T12:42:24;98480.09;;;22.71;29.27
9474;BME280;8865;47.636;7.692;2023-03-03T12:47:41;98467.31;;;26.35;25.43
9474;BME280;8865;47.636;7.692;2023-03-03T12:52:45;98476.88;;;27.97;23.83
9474;BME280;8865;47.636;7.692;2023-03-03T12:55:50;98468.25;;;28.92;22.75
9474;BME280;8865;47.636;7.692;2023-03-03T13:03:57;98469.19;;;28.51;22.78
9474;BME280;8865;47.636;7.692;2023-03-03T13:12:34;98469.38;;;30.83;20.67
9474;BME280;8865;47.636;7.692;2023-03-03T13:15:13;98466.72;;;30.56;20.84
9474;BME280;8865;47.636;7.692;2023-03-03T13:18:03;98460.59;;;30.66;19.96
9474;BME280;8865;47.636;7.692;2023-03-03T13:20:48;98465.06;;;29.95;20.96
9474;BME280;8865;47.636;7.692;2023-03-03T13:26:04;98473.19;;;29.56;21.05
9474;BME280;8865;47.636;7.692;2023-03-03T13:29:03;98458.88;;;29.33;21.51
9474;BME280;8865;47.636;7.692;2023-03-03T13:31:38;98454.31;;;29.17;21.21
9474;BME280;8865;47.636;7.692;2023-03-03T13:34:06;98454.94;;;28.68;21.38
9474;BME280;8865;47.636;7.692;2023-03-03T13:39:36;98456.41;;;29.32;20.58
9474;BME280;8865;47.636;7.692;2023-03-03T13:42:18;98444.63;;;29.82;21.11
9474;BME280;8865;47.636;7.692;2023-03-03T13:44:48;98451.53;;;29.95;20.42
9474;BME280;8865;47.636;7.692;2023-03-03T13:47:45;98440.69;;;29.68;20.35
9474;BME280;8865;47.636;7.692;2023-03-03T13:50:25;98448.06;;;29.78;20.40
9474;BME280;8865;47.636;7.692;2023-03-03T13:53:05;98442.06;;;29.70;20.49
9474;BME280;8865;47.636;7.692;2023-03-03T13:55:42;98445.34;;;29.11;21.12
9474;BME280;8865;47.636;7.692;2023-03-03T13:58:24;98440.63;;;29.01;20.50
9474;BME280;8865;47.636;7.692;2023-03-03T14:01:11;98445.16;;;28.62;21.31
9474;BME280;8865;47.636;7.692;2023-03-03T14:07:38;98448.34;;;26.96;22.82
9474;BME280;8865;47.636;7.692;2023-03-03T14:10:10;98448.66;;;24.81;24.88
9474;BME280;8865;47.636;7.692;2023-03-03T14:12:48;98448.38;;;23.41;26.46
9474;BME280;8865;47.636;7.692;2023-03-03T14:15:20;98453.59;;;22.69;27.84
9474;BME280;8865;47.636;7.692;2023-03-03T14:18:16;98453.44;;;21.40;29.51
9474;BME280;8865;47.636;7.692;2023-03-03T14:20:50;98458.31;;;19.42;31.72
9474;BME280;8865;47.636;7.692;2023-03-03T14:23:21;98456.97;;;18.41;34.45
9474;BME280;8865;47.636;7.692;2023-03-03T14:28:21;98453.69;;;15.03;40.82
9474;BME280;8865;47.636;7.692;2023-03-03T14:30:48;98457.38;;;14.84;42.80
9474;BME280;8865;47.636;7.692;2023-03-03T14:38:14;98454.91;;;12.89;49.96
9474;BME280;8865;47.636;7.692;2023-03-03T14:40:43;98458.47;;;12.98;52.48
9474;BME280;8865;47.636;7.692;2023-03-03T14:43:54;98462.09;;;13.34;53.72
9474;BME280;8865;47.636;7.692;2023-03-03T14:48:53;98445.13;;;14.02;55.12
9474;BME280;8865;47.636;7.692;2023-03-03T14:53:49;98452.25;;;14.28;51.86
9474;BME280;8865;47.636;7.692;2023-03-03T14:59:15;98443.31;;;14.03;53.25
9474;BME280;8865;47.636;7.692;2023-03-03T15:01:42;98437.34;;;13.83;52.87
9474;BME280;8865;47.636;7.692;2023-03-03T15:04:28;98441.19;;;13.43;54.30
9474;BME280;8865;47.636;7.692;2023-03-03T15:06:55;98436.81;;;12.76;56.35
9474;BME280;8865;47.636;7.692;2023-03-03T15:09:36;98435.06;;;12.18;60.21
9474;BME280;8865;47.636;7.692;2023-03-03T15:12:36;98441.25;;;11.97;61.73
9474;BME280;8865;47.636;7.692;2023-03-03T15:20:43;98440.88;;;12.41;63.03
9474;BME280;8865;47.636;7.692;2023-03-03T15:28:38;98449.03;;;12.38;61.70
9474;BME280;8865;47.636;7.692;2023-03-03T15:34:13;98445.97;;;12.33;61.69
9474;BME280;8865;47.636;7.692;2023-03-03T15:42:14;98451.25;;;11.63;67.20
9474;BME280;8865;47.636;7.692;2023-03-03T15:47:26;98459.22;;;11.21;69.95
9474;BME280;8865;47.636;7.692;2023-03-03T15:52:52;98455.28;;;10.75;72.85
9474;BME280;8865;47.636;7.692;2023-03-03T15:55:37;98451.34;;;10.90;74.11
9474;BME280;8865;47.636;7.692;2023-03-03T16:01:19;98461.91;;;10.25;80.88
9474;BME280;8865;47.636;7.692;2023-03-03T16:03:59;98463.00;;;10.34;81.45
9474;BME280;8865;47.636;7.692;2023-03-03T16:09:15;98460.25;;;10.35;84.26
9474;BME280;8865;47.636;7.692;2023-03-03T16:15:00;98456.03;;;10.44;87.62
9474;BME280;8865;47.636;7.692;2023-03-03T16:17:53;98463.81;;;10.34;88.37
9474;BME280;8865;47.636;7.692;2023-03-03T16:28:42;98469.31;;;9.88;93.99
9474;BME280;8865;47.636;7.692;2023-03-03T16:34:14;98479.88;;;9.75;97.17
9474;BME280;8865;47.636;7.692;2023-03-03T16:36:56;98482.16;;;9.68;95.87
9474;BME280;8865;47.636;7.692;2023-03-03T16:39:58;98476.94;;;9.68;98.03
9474;BME280;8865;47.636;7.692;2023-03-03T16:42:28;98483.59;;;9.61;99.69
9474;BME280;8865;47.636;7.692;2023-03-03T16:50:26;98497.97;;;9.21;100.00
9474;BME280;8865;47.636;7.692;2023-03-03T16:56:06;98506.53;;;9.23;100.00
9474;BME280;8865;47.636;7.692;2023-03-03T17:04:30;98513.97;;;8.94;100.00
9474;BME280;8865;47.636;7.692;2023-03-03T17:07:18;98514.69;;;8.85;100.00
9474;BME280;8865;47.636;7.692;2023-03-03T17:15:26;98526.88;;;8.73;100.00
9474;BME280;8865;47.636;7.692;2023-03-03T17:34:31;98550.78;;;8.55;100.00
9474;BME280;8865;47.636;7.692;2023-03-03T17:45:24;98569.69;;;8.22;100.00
9474;BME280;8865;47.636;7.692;2023-03-03T17:56:19;98580.78;;;8.13;100.00
9474;BME280;8865;47.636;7.692;2023-03-03T17:59:06;98573.97;;;8.10;100.00
9474;BME280;8865;47.636;7.692;2023-03-03T18:01:53;98582.34;;;8.02;100.00
9474;BME280;8865;47.636;7.692;2023-03-03T18:10:02;98594.03;;;7.97;100.00
9474;BME280;8865;47.636;7.692;2023-03-03T18:15:18;98593.88;;;7.74;100.00
9474;BME280;8865;47.636;7.692;2023-03-03T18:18:03;98600.66;;;7.64;100.00
9474;BME280;8865;47.636;7.692;2023-03-03T18:23:29;98603.69;;;7.58;100.00
9474;BME280;8865;47.636;7.692;2023-03-03T18:26:54;98606.38;;;7.69;100.00
9474;BME280;8865;47.636;7.692;2023-03-03T18:36:57;98614.84;;;7.60;100.00
9474;BME280;8865;47.636;7.692;2023-03-03T18:44:34;98617.97;;;7.65;100.00
9474;BME280;8865;47.636;7.692;2023-03-03T18:47:01;98613.19;;;7.59;100.00
9474;BME280;8865;47.636;7.692;2023-03-03T18:52:33;98623.72;;;7.57;100.00
9474;BME280;8865;47.636;7.692;2023-03-03T18:57:36;98629.97;;;7.55;100.00
9474;BME280;8865;47.636;7.692;2023-03-03T19:00:21;98640.81;;;7.61;100.00